Time;durP1;ratioP1;P1;durP2;ratioP2;P2;SDS_P1;SDS_P2;PMS_P1;PMS_P2;Temp;Humidity;BMP_temperature;BMP_pressure;BME280_temperature;BME280_humidity;BME280_pressure;Samples;Min_cycle;Max_cycle;Signal;HPM_P1;HPM_P2
2021/10/19 00:01:36;;;;;;;5.53;4.80;;;;;;;15.65;44.10;100260.47;1795478;77;21018;-61
2021/10/19 00:04:03;;;;;;;4.97;4.47;;;;;;;15.64;44.09;100254.78;1826077;77;21021;-61
2021/10/19 00:06:29;;;;;;;5.12;4.62;;;;;;;15.63;44.07;100263.33;1812550;77;21526;-61
2021/10/19 00:08:56;;;;;;;5.40;4.90;;;;;;;15.62;44.11;100258.16;1808171;78;21006;-61
2021/10/19 00:11:22;;;;;;;5.30;4.60;;;;;;;15.62;44.11;100267.02;1807919;77;21018;-60
2021/10/19 00:13:49;;;;;;;5.58;4.33;;;;;;;15.61;44.12;100262.69;1810274;77;21002;-61
2021/10/19 00:16:16;;;;;;;5.17;4.53;;;;;;;15.60;44.13;100265.03;1807150;78;21001;-60
2021/10/19 00:18:43;;;;;;;5.62;4.65;;;;;;;15.60;44.13;100266.89;1806042;78;21088;-60
2021/10/19 00:21:09;;;;;;;5.20;4.70;;;;;;;15.59;44.13;100265.22;1810673;77;21055;-61
2021/10/19 00:23:36;;;;;;;4.80;4.30;;;;;;;15.59;44.16;100270.57;1803374;77;21545;-60
2021/10/19 00:26:02;;;;;;;5.05;4.58;;;;;;;15.58;44.15;100266.25;1803608;77;21021;-60
2021/10/19 00:28:29;;;;;;;4.65;4.25;;;;;;;15.57;44.18;100271.27;1794749;79;21080;-60
2021/10/19 00:30:55;;;;;;;4.70;4.20;;;;;;;15.57;44.17;100275.28;1809801;78;21228;-60
2021/10/19 00:33:21;;;;;;;4.85;4.35;;;;;;;15.55;44.18;100272.82;1807768;77;21024;-59
2021/10/19 00:35:48;;;;;;;5.62;4.47;;;;;;;15.54;44.21;100271.14;1824644;77;21508;-60
2021/10/19 00:38:14;;;;;;;5.25;4.40;;;;;;;15.53;44.22;100278.36;1807078;78;21001;-60
2021/10/19 00:40:40;;;;;;;4.65;4.20;;;;;;;15.52;44.21;100272.66;1850838;77;21021;-60
2021/10/19 00:43:08;;;;;;;4.22;3.75;;;;;;;15.52;44.21;100276.69;1830115;77;21104;-61
2021/10/19 00:45:34;;;;;;;4.80;4.30;;;;;;;15.51;44.23;100274.19;1823273;77;21052;-61
2021/10/19 00:48:05;;;;;;;5.35;4.72;;;;;;;15.49;44.24;100282.43;1833688;77;21035;-61
2021/10/19 00:50:32;;;;;;;4.30;3.87;;;;;;;15.49;44.25;100276.22;1821303;77;22435;-62
2021/10/19 00:52:58;;;;;;;4.87;4.33;;;;;;;15.47;44.25;100272.42;1827299;77;21648;-59
2021/10/19 00:55:25;;;;;;;5.12;4.47;;;;;;;15.47;44.27;100278.26;1823804;77;21509;-60
2021/10/19 00:57:51;;;;;;;4.90;4.35;;;;;;;15.46;44.27;100277.44;1828399;77;21049;-59
2021/10/19 01:00:19;;;;;;;5.22;3.75;;;;;;;15.45;44.27;100281.15;1825092;77;20982;-60
2021/10/19 01:02:46;;;;;;;4.65;4.10;;;;;;;15.45;44.30;100280.30;1837778;77;21021;-61
2021/10/19 01:05:12;;;;;;;5.92;4.47;;;;;;;15.44;44.29;100284.00;1852614;77;21551;-60
2021/10/19 01:07:41;;;;;;;4.55;4.08;;;;;;;15.43;44.30;100280.98;1818697;77;21560;-61
2021/10/19 01:10:09;;;;;;;5.37;4.22;;;;;;;15.43;44.31;100285.01;1803039;78;21049;-61
2021/10/19 01:12:39;;;;;;;4.30;3.90;;;;;;;15.41;44.30;100279.83;1824028;77;21071;-60
2021/10/19 01:15:14;;;;;;;4.95;4.30;;;;;;;15.40;44.32;100280.86;1836174;77;21049;-61
2021/10/19 01:17:47;;;;;;;5.00;4.47;;;;;;;15.40;44.33;100296.11;1839642;77;21044;-60
2021/10/19 01:20:25;;;;;;;4.40;3.90;;;;;;;15.38;44.33;100286.09;1818331;77;21147;-61
2021/10/19 01:22:55;;;;;;;4.22;3.83;;;;;;;15.37;44.35;100286.58;1816254;78;21028;-60
2021/10/19 01:25:23;;;;;;;4.70;3.90;;;;;;;15.36;44.38;100291.63;1820086;77;21073;-60
2021/10/19 01:27:52;;;;;;;4.78;4.25;;;;;;;15.35;44.40;100293.97;1814395;77;21027;-61
2021/10/19 01:30:20;;;;;;;4.35;3.72;;;;;;;15.34;44.42;100293.66;1807749;77;21543;-60
2021/10/19 01:32:46;;;;;;;4.40;4.00;;;;;;;15.33;44.41;100298.68;1796396;77;21801;-60
2021/10/19 01:35:12;;;;;;;5.28;4.50;;;;;;;15.32;44.39;100304.55;1798793;77;21025;-61
2021/10/19 01:37:39;;;;;;;4.20;3.60;;;;;;;15.31;44.44;100303.39;1811555;78;21013;-60
2021/10/19 01:40:14;;;;;;;5.25;4.60;;;;;;;15.31;44.42;100300.71;1812000;77;21119;-59
2021/10/19 01:42:42;;;;;;;5.00;4.40;;;;;;;15.30;44.43;100307.09;1812250;77;21017;-60
2021/10/19 01:45:16;;;;;;;4.92;4.00;;;;;;;15.29;44.43;100311.59;1805997;77;20994;-61
2021/10/19 01:47:45;;;;;;;4.33;3.92;;;;;;;15.28;44.42;100309.13;1807742;77;21647;-61
2021/10/19 01:50:12;;;;;;;4.90;4.40;;;;;;;15.27;44.45;100314.97;1839053;77;21572;-60
2021/10/19 01:52:39;;;;;;;4.30;3.90;;;;;;;15.26;44.45;100313.81;1801751;77;21037;-60
2021/10/19 01:55:07;;;;;;;5.10;4.35;;;;;;;15.25;44.45;100309.48;1807405;77;20998;-61
2021/10/19 01:57:34;;;;;;;4.50;4.08;;;;;;;15.25;44.45;100313.50;1812646;78;21084;-60
2021/10/19 02:00:01;;;;;;;4.10;3.70;;;;;;;15.23;44.48;100311.52;1796147;77;21001;-60
2021/10/19 02:02:30;;;;;;;4.78;3.85;;;;;;;15.22;44.47;100313.38;1789947;77;21481;-60
2021/10/19 02:04:56;;;;;;;4.50;4.10;;;;;;;15.22;44.44;100311.19;1814214;77;21022;-59
2021/10/19 02:07:22;;;;;;;3.85;3.47;;;;;;;15.21;44.46;100314.89;1813881;77;21037;-62
2021/10/19 02:09:49;;;;;;;4.37;3.98;;;;;;;15.20;44.48;100318.09;1800491;77;21121;-60
2021/10/19 02:12:17;;;;;;;4.28;3.80;;;;;;;15.19;44.47;100317.75;1814044;77;20969;-60
2021/10/19 02:14:43;;;;;;;4.40;4.00;;;;;;;15.18;44.45;100319.27;1814410;77;20965;-61
2021/10/19 02:17:10;;;;;;;4.60;4.05;;;;;;;15.18;44.47;100327.29;1843610;77;20998;-59
2021/10/19 02:19:36;;;;;;;4.30;3.90;;;;;;;15.17;44.47;100324.31;1812930;77;21087;-60
2021/10/19 02:22:03;;;;;;;4.83;4.30;;;;;;;15.16;44.50;100334.16;1808550;77;21080;-61
2021/10/19 02:24:30;;;;;;;4.50;3.67;;;;;;;15.15;44.47;100329.84;1814116;77;20974;-62
2021/10/19 02:26:56;;;;;;;5.30;4.05;;;;;;;15.15;44.48;100337.87;1799407;77;21572;-60
2021/10/19 02:29:23;;;;;;;3.80;3.37;;;;;;;15.15;44.48;100336.53;1810209;78;21041;-62
2021/10/19 02:31:50;;;;;;;3.55;3.25;;;;;;;15.14;44.47;100342.39;1811546;77;20982;-61
2021/10/19 02:34:17;;;;;;;4.97;4.00;;;;;;;15.13;44.46;100343.39;1812164;77;21179;-61
2021/10/19 02:36:43;;;;;;;5.10;4.25;;;;;;;15.12;44.48;100347.10;1825461;77;22470;-60
2021/10/19 02:39:10;;;;;;;4.35;3.90;;;;;;;15.11;44.49;100345.94;1825708;77;20983;-60
2021/10/19 02:41:38;;;;;;;4.12;3.72;;;;;;;15.10;44.48;100344.27;1825413;78;21038;-60
2021/10/19 02:44:05;;;;;;;4.65;4.10;;;;;;;15.10;44.49;100346.45;1821398;77;21027;-61
2021/10/19 02:46:33;;;;;;;4.53;4.03;;;;;;;15.09;44.49;100346.12;1836568;77;21120;-59
2021/10/19 02:49:00;;;;;;;4.58;3.67;;;;;;;15.07;44.50;100354.84;1824326;77;21048;-59
2021/10/19 02:51:27;;;;;;;5.35;3.92;;;;;;;15.06;44.50;100351.82;1820169;77;21025;-60
2021/10/19 02:53:54;;;;;;;4.35;3.95;;;;;;;15.06;44.51;100355.84;1827914;77;21457;-61
2021/10/19 02:56:21;;;;;;;5.35;4.00;;;;;;;15.05;44.51;100350.17;1824284;78;21490;-60
2021/10/19 02:58:48;;;;;;;4.45;4.05;;;;;;;15.05;44.48;100356.05;1826583;77;22068;-62
2021/10/19 03:01:15;;;;;;;4.25;3.70;;;;;;;15.05;44.50;100366.23;1846126;77;21032;-61
2021/10/19 03:03:41;;;;;;;4.40;3.60;;;;;;;15.04;44.50;100364.55;1828849;77;21005;-61
2021/10/19 03:06:07;;;;;;;4.47;3.52;;;;;;;15.03;44.52;100364.25;1817490;77;21774;-60
2021/10/19 03:08:34;;;;;;;4.12;3.40;;;;;;;15.02;44.53;100362.56;1806667;78;20990;-60
2021/10/19 03:11:01;;;;;;;4.05;3.65;;;;;;;15.02;44.52;100365.76;1815911;77;21134;-60
2021/10/19 03:13:28;;;;;;;3.75;3.25;;;;;;;15.01;44.52;100371.63;1758041;77;20977;-60
2021/10/19 03:15:56;;;;;;;4.97;3.80;;;;;;;15.00;44.53;100369.13;1817339;78;21033;-61
2021/10/19 03:18:22;;;;;;;4.20;3.80;;;;;;;14.99;44.55;100374.98;1810118;78;21714;-61
2021/10/19 03:20:49;;;;;;;4.12;3.35;;;;;;;14.98;44.54;100369.30;1804301;77;21088;-60
2021/10/19 03:23:16;;;;;;;3.80;3.35;;;;;;;14.97;44.55;100374.34;1834762;77;21488;-59
2021/10/19 03:25:43;;;;;;;4.10;3.40;;;;;;;14.97;44.53;100381.52;1816191;78;21080;-62
2021/10/19 03:28:09;;;;;;;4.20;3.80;;;;;;;14.97;44.53;100377.50;1817752;77;21077;-61
2021/10/19 03:30:35;;;;;;;4.20;3.80;;;;;;;14.95;44.54;100376.37;1819784;77;21480;-61
2021/10/19 03:33:03;;;;;;;4.15;3.75;;;;;;;14.95;44.53;100379.05;1823785;77;22049;-60
2021/10/19 03:35:30;;;;;;;3.80;3.40;;;;;;;14.94;44.53;100386.73;1797457;77;21918;-60
2021/10/19 03:37:56;;;;;;;3.77;3.40;;;;;;;14.93;44.57;100384.57;1812921;77;21055;-60
2021/10/19 03:40:23;;;;;;;4.17;3.77;;;;;;;14.93;44.54;100389.06;1787056;77;21539;-60
2021/10/19 03:42:49;;;;;;;4.33;3.55;;;;;;;14.91;44.53;100387.93;1813084;77;21058;-61
2021/10/19 03:45:17;;;;;;;4.30;3.50;;;;;;;14.91;44.54;100391.09;1815258;77;21493;-61
2021/10/19 03:47:44;;;;;;;3.80;3.45;;;;;;;14.90;44.56;100397.47;1830383;77;21517;-61
2021/10/19 03:50:11;;;;;;;4.08;3.67;;;;;;;14.89;44.56;100391.78;1813392;77;21086;-60
2021/10/19 03:52:38;;;;;;;3.70;3.40;;;;;;;14.89;44.53;100398.47;1804291;77;21061;-61
2021/10/19 03:55:06;;;;;;;4.42;3.85;;;;;;;14.87;44.53;100397.33;1803671;79;21069;-61
2021/10/19 03:57:34;;;;;;;3.72;3.33;;;;;;;14.86;44.56;100402.34;1784886;78;20985;-60
2021/10/19 04:00:00;;;;;;;4.90;3.60;;;;;;;14.86;44.57;100405.53;1811511;77;21054;-61
2021/10/19 04:02:27;;;;;;;4.17;3.75;;;;;;;14.85;44.55;100409.20;1814919;77;21072;-61
2021/10/19 04:04:53;;;;;;;3.90;3.40;;;;;;;14.85;44.56;100410.54;1808396;77;21041;-60
2021/10/19 04:07:19;;;;;;;3.65;3.27;;;;;;;14.84;44.55;100411.05;1799795;77;21628;-61
2021/10/19 04:09:46;;;;;;;3.42;3.12;;;;;;;14.82;44.58;100406.39;1799623;77;21005;-60
2021/10/19 04:12:14;;;;;;;4.03;3.42;;;;;;;14.83;44.57;100415.24;1808445;78;21494;-61
2021/10/19 04:14:42;;;;;;;4.35;3.50;;;;;;;14.81;44.58;100411.91;1808321;77;21071;-60
2021/10/19 04:17:08;;;;;;;4.28;3.87;;;;;;;14.79;44.56;100413.94;1833646;77;20997;-60
2021/10/19 04:19:35;;;;;;;5.35;4.12;;;;;;;14.79;44.59;100416.09;1841405;77;21017;-60
2021/10/19 04:22:02;;;;;;;3.62;3.33;;;;;;;14.78;44.59;100418.98;1824725;77;21033;-60
2021/10/19 04:24:28;;;;;;;3.95;3.17;;;;;;;14.77;44.58;100419.46;1789641;77;21132;-60
2021/10/19 04:26:54;;;;;;;3.90;3.33;;;;;;;14.77;44.56;100419.97;1794002;78;21101;-59
2021/10/19 04:29:21;;;;;;;3.45;3.15;;;;;;;14.76;44.58;100417.81;1797195;77;21502;-60
2021/10/19 04:31:47;;;;;;;4.53;3.75;;;;;;;14.75;44.58;100425.50;1803120;77;21066;-61
2021/10/19 04:34:13;;;;;;;4.17;3.50;;;;;;;14.74;44.59;100425.19;1808491;77;21036;-60
2021/10/19 04:36:39;;;;;;;3.60;3.30;;;;;;;14.73;44.60;100428.86;1807421;77;21067;-60
2021/10/19 04:39:06;;;;;;;3.87;3.45;;;;;;;14.73;44.62;100430.19;1810925;77;21490;-63
2021/10/19 04:41:32;;;;;;;5.78;3.37;;;;;;;14.72;44.60;100438.73;1801462;77;21564;-61
2021/10/19 04:43:58;;;;;;;3.98;3.58;;;;;;;14.72;44.57;100438.73;1809434;77;21087;-61
2021/10/19 04:46:25;;;;;;;3.77;3.37;;;;;;;14.71;44.60;100437.05;1809924;77;21057;-61
2021/10/19 04:48:52;;;;;;;3.95;3.55;;;;;;;14.70;44.59;100439.41;1817179;77;21772;-62
2021/10/19 04:51:19;;;;;;;4.20;3.80;;;;;;;14.70;44.60;100446.61;1814227;77;21585;-62
2021/10/19 04:53:47;;;;;;;4.35;3.67;;;;;;;14.69;44.60;100454.30;1805690;77;21093;-61
2021/10/19 04:56:14;;;;;;;4.17;3.77;;;;;;;14.69;44.59;100456.97;1807599;77;21524;-63
2021/10/19 04:58:41;;;;;;;3.92;3.45;;;;;;;14.68;44.61;100460.16;1827860;77;21077;-61
2021/10/19 05:01:07;;;;;;;3.98;3.55;;;;;;;14.67;44.62;100466.50;1796894;77;22003;-61
2021/10/19 05:03:33;;;;;;;4.40;3.98;;;;;;;14.67;44.61;100463.83;1809763;77;21022;-61
2021/10/19 05:06:00;;;;;;;3.62;3.33;;;;;;;14.67;44.59;100473.19;1835400;77;21044;-61
2021/10/19 05:08:26;;;;;;;3.70;3.40;;;;;;;14.67;44.59;100476.38;1825514;77;20975;-61
2021/10/19 05:10:53;;;;;;;3.85;3.30;;;;;;;14.67;44.59;100483.06;1829797;77;21036;-62
2021/10/19 05:13:19;;;;;;;4.30;3.55;;;;;;;14.66;44.56;100476.89;1810280;77;21797;-60
2021/10/19 05:15:47;;;;;;;5.22;3.70;;;;;;;14.66;44.58;100477.37;1822303;77;20976;-61
2021/10/19 05:18:15;;;;;;;4.20;3.40;;;;;;;14.64;44.57;100481.58;1823045;77;20989;-62
2021/10/19 05:20:42;;;;;;;4.40;3.60;;;;;;;14.66;44.55;100482.72;1803310;77;21010;-61
2021/10/19 05:23:08;;;;;;;5.25;4.03;;;;;;;14.65;44.56;100487.23;1814439;77;21073;-61
2021/10/19 05:25:35;;;;;;;4.10;3.65;;;;;;;14.65;44.58;100482.41;1810983;79;21119;-61
2021/10/19 05:28:01;;;;;;;3.70;3.40;;;;;;;14.65;44.58;100485.91;1812005;77;21040;-60
2021/10/19 05:30:28;;;;;;;4.00;3.50;;;;;;;14.66;44.55;100484.05;1808256;79;20981;-62
2021/10/19 05:32:54;;;;;;;4.33;3.92;;;;;;;14.67;44.55;100487.07;1802461;77;21490;-60
2021/10/19 05:35:20;;;;;;;4.60;3.33;;;;;;;14.66;44.54;100486.24;1812116;77;21122;-62
2021/10/19 05:37:47;;;;;;;4.30;3.70;;;;;;;14.68;44.53;100489.58;1819797;77;21097;-62
2021/10/19 05:40:13;;;;;;;4.17;3.58;;;;;;;14.68;44.51;100490.91;1816303;77;21004;-61
2021/10/19 05:42:40;;;;;;;4.15;3.62;;;;;;;14.69;44.52;100496.57;1810121;78;21005;-60
2021/10/19 05:45:07;;;;;;;4.50;3.52;;;;;;;14.69;44.50;100493.89;1821577;77;21061;-61
2021/10/19 05:47:34;;;;;;;4.12;3.72;;;;;;;14.71;44.49;100496.40;1819699;78;21052;-61
2021/10/19 05:50:01;;;;;;;3.33;3.02;;;;;;;14.71;44.47;100503.09;1812707;77;21872;-61
2021/10/19 05:52:27;;;;;;;4.50;3.90;;;;;;;14.72;44.47;100502.09;1819529;77;21032;-61
2021/10/19 05:54:54;;;;;;;4.35;3.95;;;;;;;14.73;44.43;100501.89;1819507;77;21493;-61
2021/10/19 05:57:20;;;;;;;3.92;3.55;;;;;;;14.74;44.43;100502.75;1841303;77;21494;-61
2021/10/19 05:59:46;;;;;;;4.50;4.10;;;;;;;14.75;44.40;100507.89;1838385;77;21039;-61
2021/10/19 06:02:13;;;;;;;4.03;3.45;;;;;;;14.75;44.40;100509.23;1843133;77;21095;-61
2021/10/19 06:04:39;;;;;;;3.92;3.52;;;;;;;14.77;44.39;100517.09;1807745;77;21021;-61
2021/10/19 06:07:06;;;;;;;3.98;3.40;;;;;;;14.77;44.37;100514.41;1811994;77;21076;-61
2021/10/19 06:09:32;;;;;;;4.15;3.75;;;;;;;14.79;44.34;100510.23;1840494;77;21111;-61
2021/10/19 06:12:00;;;;;;;3.30;3.00;;;;;;;14.80;44.35;100515.92;1838569;77;21032;-61
2021/10/19 06:14:27;;;;;;;3.72;3.27;;;;;;;14.81;44.32;100509.55;1827673;77;21198;-60
2021/10/19 06:16:53;;;;;;;4.97;4.05;;;;;;;14.82;44.27;100515.23;1848230;77;21036;-61
2021/10/19 06:19:20;;;;;;;4.25;3.58;;;;;;;14.84;44.25;100515.89;1807093;77;21600;-61
2021/10/19 06:21:46;;;;;;;4.00;3.50;;;;;;;14.86;44.27;100523.23;1808924;78;21457;-62
2021/10/19 06:24:12;;;;;;;4.47;3.58;;;;;;;14.87;44.23;100522.20;1811967;77;21100;-61
2021/10/19 06:26:39;;;;;;;4.42;3.70;;;;;;;14.88;44.21;100515.86;1816170;77;23305;-61
2021/10/19 06:29:08;;;;;;;3.55;3.25;;;;;;;14.90;44.19;100523.20;1816882;77;21068;-60
2021/10/19 06:31:34;;;;;;;3.77;3.25;;;;;;;14.91;44.17;100527.53;1819718;77;21647;-63
2021/10/19 06:34:02;;;;;;;4.30;3.17;;;;;;;14.91;44.14;100529.72;1841549;77;21517;-62
2021/10/19 06:36:28;;;;;;;4.55;3.65;;;;;;;14.93;44.12;100521.49;1843281;77;21008;-62
2021/10/19 06:38:54;;;;;;;4.10;3.70;;;;;;;14.97;44.11;100532.19;1790786;77;21096;-61
2021/10/19 06:41:21;;;;;;;4.35;3.95;;;;;;;14.99;44.08;100529.31;1825623;77;21036;-60
2021/10/19 06:43:47;;;;;;;3.87;3.47;;;;;;;15.00;44.05;100527.80;1833716;77;21060;-62
2021/10/19 06:46:14;;;;;;;3.62;3.22;;;;;;;15.02;44.02;100534.33;1823397;77;21010;-61
2021/10/19 06:48:41;;;;;;;4.17;3.77;;;;;;;15.04;43.99;100537.66;1810172;78;21029;-61
2021/10/19 06:51:07;;;;;;;3.98;3.58;;;;;;;15.04;43.96;100527.77;1820460;77;22092;-61
2021/10/19 06:53:33;;;;;;;4.45;3.80;;;;;;;15.06;43.97;100524.92;1822724;77;21013;-62
2021/10/19 06:56:00;;;;;;;4.70;3.60;;;;;;;15.08;43.92;100524.24;1829110;77;21084;-61
2021/10/19 06:58:26;;;;;;;3.80;3.40;;;;;;;15.09;43.89;100526.75;1821158;77;21809;-61
2021/10/19 07:00:54;;;;;;;4.20;3.70;;;;;;;15.11;43.87;100527.91;1821082;77;21071;-62
2021/10/19 07:03:23;;;;;;;4.30;3.85;;;;;;;15.13;43.86;100525.89;1825266;77;21113;-61
2021/10/19 07:05:50;;;;;;;3.70;3.33;;;;;;;15.14;43.85;100523.03;1830106;77;21024;-66
2021/10/19 07:08:17;;;;;;;4.55;3.37;;;;;;;15.18;43.83;100521.32;1813393;77;21060;-61
2021/10/19 07:10:43;;;;;;;4.97;3.60;;;;;;;15.18;43.79;100527.50;1820954;77;21555;-61
2021/10/19 07:13:11;;;;;;;3.98;3.58;;;;;;;15.21;43.76;100527.67;1820920;77;21064;-61
2021/10/19 07:15:39;;;;;;;3.75;3.30;;;;;;;15.22;43.74;100526.64;1805444;77;21533;-60
2021/10/19 07:18:06;;;;;;;3.90;3.40;;;;;;;15.24;43.72;100531.30;1814274;77;21484;-60
2021/10/19 07:20:34;;;;;;;3.95;3.55;;;;;;;15.26;43.70;100527.94;1831711;77;21520;-63
2021/10/19 07:23:00;;;;;;;3.75;3.10;;;;;;;15.29;43.65;100532.95;1824511;77;21133;-61
2021/10/19 07:25:28;;;;;;;3.80;3.37;;;;;;;15.30;43.63;100539.47;1825911;77;20990;-62
2021/10/19 07:27:57;;;;;;;4.65;4.20;;;;;;;15.31;43.62;100533.09;1803213;77;21752;-62
2021/10/19 07:30:23;;;;;;;4.55;3.67;;;;;;;15.35;43.58;100541.59;1819784;77;21018;-60
2021/10/19 07:32:50;;;;;;;3.70;3.30;;;;;;;15.37;43.55;100531.54;1818507;77;21013;-61
2021/10/19 07:35:18;;;;;;;3.83;3.42;;;;;;;15.39;43.51;100526.83;1806941;77;21091;-60
2021/10/19 07:37:45;;;;;;;4.10;3.65;;;;;;;15.41;43.46;100531.50;1825019;77;21098;-61
2021/10/19 07:40:12;;;;;;;3.95;3.37;;;;;;;15.44;43.46;100527.14;1808091;77;21143;-62
2021/10/19 07:42:39;;;;;;;3.37;3.08;;;;;;;15.47;43.44;100525.45;1838072;77;21040;-62
2021/10/19 07:45:09;;;;;;;3.42;3.05;;;;;;;15.50;43.42;100530.42;1818623;77;21078;-61
2021/10/19 07:47:43;;;;;;;3.52;3.22;;;;;;;15.52;43.37;100523.03;1805134;77;21069;-61
2021/10/19 07:50:15;;;;;;;4.00;3.60;;;;;;;15.54;43.34;100526.36;1824906;77;21004;-61
2021/10/19 07:52:46;;;;;;;3.85;3.20;;;;;;;15.57;43.33;100522.52;1828959;77;21124;-60
2021/10/19 07:55:12;;;;;;;3.40;3.02;;;;;;;15.61;43.31;100529.68;1808041;77;21726;-61
2021/10/19 07:57:47;;;;;;;3.83;3.33;;;;;;;15.53;43.25;100507.83;1811800;77;21044;-63
2021/10/19 08:00:14;;;;;;;3.98;3.30;;;;;;;15.67;43.26;100526.27;1831599;77;21009;-60
2021/10/19 08:02:44;;;;;;;4.20;3.45;;;;;;;15.71;43.20;100532.92;1811521;77;21538;-61
2021/10/19 08:05:13;;;;;;;3.65;3.25;;;;;;;15.74;43.16;100533.91;1808120;77;21090;-61
2021/10/19 08:07:49;;;;;;;4.08;3.52;;;;;;;15.78;43.15;100539.25;1810459;77;21057;-63
2021/10/19 08:10:20;;;;;;;4.50;3.27;;;;;;;15.82;43.15;100532.52;1801274;77;20994;-61
2021/10/19 08:12:49;;;;;;;3.58;3.17;;;;;;;15.87;43.10;100539.98;1806972;77;21013;-61
2021/10/19 08:15:16;;;;;;;3.40;2.75;;;;;;;15.90;43.06;100537.78;1823174;77;21025;-62
2021/10/19 08:17:43;;;;;;;4.15;3.37;;;;;;;15.95;43.04;100543.91;1814398;77;23303;-61
2021/10/19 08:20:10;;;;;;;3.25;2.95;;;;;;;15.99;42.99;100546.55;1811518;77;20990;-61
2021/10/19 08:22:37;;;;;;;3.42;2.90;;;;;;;16.04;42.95;100546.02;1810269;77;21061;-61
2021/10/19 08:25:06;;;;;;;3.70;3.17;;;;;;;16.09;42.89;100547.64;1821350;77;21016;-63
2021/10/19 08:27:40;;;;;;;3.58;3.25;;;;;;;16.14;42.86;100553.27;1806965;77;21045;-62
2021/10/19 08:30:09;;;;;;;4.17;3.50;;;;;;;16.19;42.86;100553.55;1809974;77;23328;-60
2021/10/19 08:32:36;;;;;;;3.45;2.80;;;;;;;16.25;42.83;100554.14;1826207;77;21036;-61
2021/10/19 08:35:04;;;;;;;3.70;2.90;;;;;;;16.31;42.83;100556.59;1838507;77;21544;-61
2021/10/19 08:37:32;;;;;;;3.58;3.20;;;;;;;16.38;42.76;100561.55;1828634;77;21503;-62
2021/10/19 08:39:59;;;;;;;3.83;3.00;;;;;;;16.44;42.70;100554.61;1819933;77;21116;-61
2021/10/19 08:42:26;;;;;;;3.00;2.70;;;;;;;16.50;42.67;100561.91;1818400;77;21197;-62
2021/10/19 08:44:52;;;;;;;3.72;3.42;;;;;;;16.56;42.64;100567.86;1819507;77;21052;-62
2021/10/19 08:47:20;;;;;;;3.75;2.95;;;;;;;16.60;42.55;100565.11;1850597;77;21043;-61
2021/10/19 08:49:46;;;;;;;3.60;3.15;;;;;;;16.67;42.48;100567.89;1816282;77;21061;-65
2021/10/19 08:52:12;;;;;;;3.20;2.90;;;;;;;16.73;42.42;100558.23;1793876;77;22079;-60
2021/10/19 08:54:39;;;;;;;3.08;2.77;;;;;;;16.79;42.41;100566.90;1809959;77;21121;-62
2021/10/19 08:57:16;;;;;;;4.60;3.05;;;;;;;16.86;42.29;100567.81;1814944;77;20997;-62
2021/10/19 08:59:44;;;;;;;3.08;2.67;;;;;;;16.92;42.22;100563.06;1835607;77;21004;-61
2021/10/19 09:02:13;;;;;;;3.30;3.00;;;;;;;16.97;42.15;100574.03;1822969;77;20966;-61
2021/10/19 09:04:39;;;;;;;3.40;2.70;;;;;;;17.02;42.09;100570.28;1833522;77;21067;-62
2021/10/19 09:07:06;;;;;;;4.55;2.72;;;;;;;17.07;42.00;100571.89;1831283;77;21227;-62
2021/10/19 09:09:35;;;;;;;3.00;2.70;;;;;;;17.13;41.87;100572.95;1845630;77;21078;-62
2021/10/19 09:12:03;;;;;;;2.95;2.60;;;;;;;17.20;41.79;100579.75;1814609;77;21033;-62
2021/10/19 09:14:37;;;;;;;3.20;2.70;;;;;;;17.27;41.74;100587.38;1819847;77;21072;-61
2021/10/19 09:17:04;;;;;;;3.72;2.58;;;;;;;17.33;41.67;100576.37;1838820;77;21027;-62
2021/10/19 09:19:34;;;;;;;2.80;2.60;;;;;;;17.38;41.58;100576.09;1823665;77;21117;-62
2021/10/19 09:22:09;;;;;;;3.22;2.85;;;;;;;17.43;41.55;100572.84;1833253;77;21079;-66
2021/10/19 09:24:42;;;;;;;3.15;2.80;;;;;;;17.48;41.55;100571.73;1823789;77;21108;-64
2021/10/19 09:27:17;;;;;;;2.90;2.62;;;;;;;17.52;41.47;100573.53;1825049;77;21045;-63
2021/10/19 09:29:46;;;;;;;3.98;2.58;;;;;;;17.57;41.43;100569.24;1825670;77;21481;-60
2021/10/19 09:32:13;;;;;;;3.08;2.72;;;;;;;17.64;41.35;100566.11;1805095;77;21074;-62
2021/10/19 09:34:43;;;;;;;2.65;2.45;;;;;;;17.71;41.29;100558.08;1818076;77;21021;-61
2021/10/19 09:37:11;;;;;;;2.45;2.25;;;;;;;17.81;41.21;100568.00;1818909;77;21073;-62
2021/10/19 09:39:43;;;;;;;3.58;2.10;;;;;;;17.90;41.15;100565.19;1825694;77;21002;-62
2021/10/19 09:42:19;;;;;;;2.83;2.15;;;;;;;18.01;41.09;100563.30;1821172;77;21072;-61
2021/10/19 09:44:57;;;;;;;2.62;2.20;;;;;;;18.10;41.05;100571.55;1818954;77;21315;-61
2021/10/19 09:47:29;;;;;;;2.47;2.22;;;;;;;18.20;41.00;100574.70;1803795;77;21591;-62
2021/10/19 09:52:05;;;;;;;3.25;2.40;;;;;;;18.42;40.84;100566.53;1876931;75;28871;-61
2021/10/19 09:54:32;;;;;;;2.70;2.42;;;;;;;18.43;40.84;100569.03;1842628;75;22211;-62
2021/10/19 09:56:59;;;;;;;2.50;2.30;;;;;;;18.51;40.73;100567.21;1838542;75;21225;-62
2021/10/19 09:59:25;;;;;;;2.75;2.50;;;;;;;18.58;40.62;100565.36;1846551;75;21514;-60
2021/10/19 10:01:52;;;;;;;2.65;2.30;;;;;;;18.61;40.59;100567.13;1849396;76;21017;-62
2021/10/19 10:04:21;;;;;;;2.65;2.35;;;;;;;18.65;40.50;100571.08;1841247;75;21219;-62
2021/10/19 10:06:49;;;;;;;2.67;2.35;;;;;;;18.67;40.46;100569.54;1835617;75;20993;-61
2021/10/19 10:09:17;;;;;;;2.75;2.50;;;;;;;18.71;40.40;100568.63;1839644;75;21094;-61
2021/10/19 10:11:43;;;;;;;3.08;2.50;;;;;;;18.75;40.45;100568.02;1844736;76;20961;-61
2021/10/19 10:14:12;;;;;;;3.45;2.40;;;;;;;18.82;40.45;100568.08;1843684;75;21060;-61
2021/10/19 10:16:46;;;;;;;3.45;2.62;;;;;;;18.85;40.46;100564.47;1831217;76;21005;-61
2021/10/19 10:19:19;;;;;;;2.42;2.20;;;;;;;18.90;40.43;100562.51;1848627;75;21018;-61
2021/10/19 10:21:53;;;;;;;3.22;2.40;;;;;;;18.96;40.29;100564.91;1836388;76;21042;-61
2021/10/19 10:24:31;;;;;;;2.47;2.10;;;;;;;19.00;40.28;100554.86;1852486;77;21587;-60
2021/10/19 10:27:07;;;;;;;2.22;2.02;;;;;;;19.08;40.30;100561.10;1827569;75;21029;-63
2021/10/19 10:29:46;;;;;;;2.40;2.20;;;;;;;19.17;40.30;100548.58;1825847;77;21009;-61
2021/10/19 10:32:28;;;;;;;1.80;1.70;;;;;;;19.28;40.28;100548.51;1853001;76;21040;-61
2021/10/19 10:35:12;;;;;;;2.42;2.22;;;;;;;19.37;40.24;100554.02;1877414;75;21190;-61
2021/10/19 10:37:51;;;;;;;2.20;2.00;;;;;;;19.49;40.15;100546.63;1846725;77;21455;-62
2021/10/19 10:40:33;;;;;;;2.35;2.10;;;;;;;19.60;40.10;100537.93;1852772;75;21026;-62
2021/10/19 10:43:03;;;;;;;2.52;2.33;;;;;;;19.70;39.99;100541.05;1855618;75;21025;-62
2021/10/19 10:45:33;;;;;;;2.22;1.85;;;;;;;19.82;39.88;100537.23;1853523;75;21006;-61
2021/10/19 10:48:05;;;;;;;2.22;2.00;;;;;;;19.94;39.82;100540.94;1844353;75;21046;-61
2021/10/19 10:50:37;;;;;;;2.55;2.12;;;;;;;20.05;39.71;100538.13;1827129;76;22131;-61
2021/10/19 10:53:09;;;;;;;2.20;1.98;;;;;;;20.17;39.62;100535.61;1830673;75;21008;-61
2021/10/19 10:55:41;;;;;;;2.98;2.05;;;;;;;20.31;39.48;100535.04;1825646;77;21084;-63
2021/10/19 10:58:08;;;;;;;2.50;2.30;;;;;;;20.41;39.36;100532.70;1830799;75;21525;-62
2021/10/19 11:00:36;;;;;;;1.77;1.67;;;;;;;20.53;39.24;100539.61;1834500;75;21481;-62
2021/10/19 11:03:14;;;;;;;2.45;1.72;;;;;;;20.65;39.15;100537.09;1824963;77;20993;-70
2021/10/19 11:05:55;;;;;;;1.72;1.62;;;;;;;20.76;39.03;100541.28;1831497;76;21052;-69
2021/10/19 11:08:35;;;;;;;1.90;1.80;;;;;;;20.88;38.92;100540.11;1821643;75;21539;-71
2021/10/19 11:11:10;;;;;;;2.05;1.57;;;;;;;20.98;38.84;100535.05;1861681;75;21006;-70
2021/10/19 11:13:57;;;;;;;1.72;1.62;;;;;;;21.10;38.70;100534.36;1846656;76;21088;-70
2021/10/19 11:16:42;;;;;;;2.30;2.10;;;;;;;21.21;38.57;100525.56;1834079;76;20978;-70
2021/10/19 11:19:23;;;;;;;2.10;1.90;;;;;;;21.31;38.47;100525.06;1853808;75;21022;-69
2021/10/19 11:21:57;;;;;;;2.27;1.92;;;;;;;21.41;38.39;100526.21;1858002;75;21026;-69
2021/10/19 11:24:26;;;;;;;2.83;2.20;;;;;;;21.54;38.30;100525.31;1855404;76;21532;-70
2021/10/19 11:26:53;;;;;;;2.20;2.00;;;;;;;21.64;38.22;100518.05;1844325;75;21182;-71
2021/10/19 11:29:20;;;;;;;2.37;2.17;;;;;;;21.75;38.16;100517.83;1856023;75;21130;-72
2021/10/19 11:31:47;;;;;;;1.85;1.75;;;;;;;21.84;38.07;100517.84;1846796;75;21052;-71